Seaspan Saigon — VRBT7 — position and weather

sailwx.info

Track history (hours):
 
Tides and Currents Weather Stations Pressure Air Temp Water Temp Dewpoint Dewpoint Depression Visibility Wind Speed Wind Dir Waves Ship Positions

Seaspan Saigon

Last reported at 2016-Aug-30 01:28 UTC. Time now 2016-Aug-30 05:00 UTC.
Position N 37°41' E 004°56'.

Length 260 m; draft 11.2 m.

Type: Ship (hazmat cat A). MMSI: 477106800.

Date/timePositionNaut miles runAvg speedWind from/ knotsBaromVisibWave heightAir tempDewpointWater temp
2016-Aug-30 01:28N 37°41' E 004°56'3416.8
2016-Aug-29 23:25N 37°33' E 004°14'3117.0
2016-Aug-29 21:33N 37°26' E 003°35'2217.0
2016-Aug-29 20:17N 37°21' E 003°09'1317.1
2016-Aug-29 19:33N 37°18' E 002°53'1716.6
2016-Aug-29 18:33N 37°14' E 002°33'1716.8
2016-Aug-29 17:34N 37°10' E 002°13'1716.6
2016-Aug-29 16:33N 37°07' E 001°52'1716.9
2016-Aug-29 15:33N 37°03' E 001°31'1717.0
2016-Aug-29 14:32N 36°59' E 001°11'1717.1
2016-Aug-29 13:31N 36°54' E 000°49'1817.1
2016-Aug-29 12:29N 36°51' E 000°28'1616.7
2016-Aug-29 11:33N 36°47' E 000°09'1916.9
2016-Aug-29 10:26N 36°43' W 000°14'1716.7
2016-Aug-29 09:26N 36°39' W 000°34'1516.8
2016-Aug-29 08:34N 36°36' W 000°52'1716.9
2016-Aug-29 07:33N 36°32' W 001°13'1716.7
2016-Aug-29 06:34N 36°28' W 001°33'1717.0
2016-Aug-29 05:34N 36°24' W 001°53'1716.7
2016-Aug-29 04:34N 36°20' W 002°14'1616.5
2016-Aug-29 03:34N 36°19' W 002°34'1716.8
2016-Aug-29 02:34N 36°16' W 002°55'2016.7
2016-Aug-29 01:21N 36°14' W 003°19'1316.2
2016-Aug-29 00:33N 36°11' W 003°35'8216.4
2016-Aug-28 19:34N 36°00' W 005°16'13 2.1
2016-Aug-28 13:32N 35°55' W 005°30'4 0.4
2016-Aug-28 02:29N 35°53' W 005°34'2 0.2
2016-Aug-27 16:18N 35°54' W 005°37'7 8.7
2016-Aug-27 15:32N 35°53' W 005°45'28 4.6
2016-Aug-27 09:29N 35°53' W 006°19'3810.8
2016-Aug-27 06:00N 35°54' W 007°06'21212.8 100 / 171016.0 5.4 1.024.019.4
2016-Aug-26 13:26N 36°11' W 011°27'1212.4
2016-Aug-26 12:27N 36°13' W 011°41'511.8
2016-Aug-26 12:00N 36°12' W 011°48'714.8 020 / 231016.0 5.4 1.522.017.2
2016-Aug-26 11:32N 36°15' W 011°55'1612.1
2016-Aug-26 10:13N 36°18' W 012°15'812.2
2016-Aug-26 09:33N 36°20' W 012°24'3810.8
2016-Aug-26 06:00N 36°24' W 013°12'14612.2 010 / 231017.010.8 2.022.516.8
2016-Aug-25 18:00N 36°48' W 016°12'15012.5 010 / 201019.010.8 2.022.515.0
2016-Aug-25 06:00N 37°12' W 019°18'7712.8 020 / 191020.010.8 20.615.8
2016-Aug-25 00:00N 37°18' W 020°54'13813.1 360 / 191022.010.8 2.021.016.0
2016-Aug-24 13:29N 37°33' W 023°46'1112.4
2016-Aug-24 12:33N 37°34' W 024°01'1312.7
2016-Aug-24 11:33N 37°35' W 024°17'1312.7
2016-Aug-24 10:33N 37°36' W 024°33'1312.8
2016-Aug-24 09:33N 37°37' W 024°49'1312.9
2016-Aug-24 08:34N 37°38' W 025°05'1313.0
2016-Aug-24 07:33N 37°38' W 025°22'1313.4
2016-Aug-24 06:33N 37°37' W 025°38'813.6
2016-Aug-24 06:00N 37°36' W 025°48'1912.9 020 / 71023.010.8 21.516.6
2016-Aug-24 04:34N 37°37' W 026°11'1313.3
2016-Aug-24 03:33N 37°37' W 026°28'1313.3
2016-Aug-24 02:34N 37°37' W 026°45'1313.2
2016-Aug-24 01:33N 37°36' W 027°02'1313.1
2016-Aug-24 00:33N 37°36' W 027°18'5 8.1
2016-Aug-24 00:00N 37°36' W 027°24'819.3 050 / 101026.010.8 1.021.014.2
2016-Aug-23 23:33N 37°36' W 027°35'1313.1
2016-Aug-23 22:33N 37°36' W 027°51'1313.3
2016-Aug-23 21:34N 37°35' W 028°08'1313.3
2016-Aug-23 20:33N 37°35' W 028°25'1313.3
2016-Aug-23 19:33N 37°35' W 028°42'1313.4
2016-Aug-23 18:33N 37°35' W 028°58'813.7
2016-Aug-23 18:00N 37°30' W 029°06'819.1 030 / 111026.010.8 1.022.515.026.0
2016-Aug-23 17:33N 37°35' W 029°15'1313.0
2016-Aug-23 16:33N 37°34' W 029°31'1313.4
2016-Aug-23 15:33N 37°34' W 029°48'12913.5
2016-Aug-23 06:00N 37°24' W 032°30'8113.6 040 / 81026.010.8 1.022.015.326.0
2016-Aug-23 00:00N 37°18' W 034°12'25113.9 040 / 131027.010.8 1.024.021.0
2016-Aug-22 06:00N 36°48' W 039°24'41013.7 090 / 101024.010.8 1.525.022.027.0
2016-Aug-21 00:00N 35°30' W 047°42'24813.8 160 / 91019.010.8 1.028.025.2
2016-Aug-20 06:00N 34°30' W 052°36'   260 / 111016.010.8 2.025.023.529.0
Track history (hours):
 
Tides and Currents Weather Stations Pressure Air Temp Water Temp Dewpoint Dewpoint Depression Visibility Wind Speed Wind Dir Waves Ship Positions

Seaspan Saigon

Last reported at 2016-Aug-30 01:28 UTC. Time now 2016-Aug-30 05:00 UTC.
Position N 37°41' E 004°56'.

Length 260 m; draft 11.2 m.

Type: Ship (hazmat cat A). MMSI: 477106800.

Date/timePositionNaut miles runAvg speedWind from/ knotsBaromVisibWave heightAir tempDewpointWater temp
2016-Aug-30 01:28N 37°41' E 004°56'3416.8
2016-Aug-29 23:25N 37°33' E 004°14'3117.0
2016-Aug-29 21:33N 37°26' E 003°35'2217.0
2016-Aug-29 20:17N 37°21' E 003°09'1317.1
2016-Aug-29 19:33N 37°18' E 002°53'1716.6
2016-Aug-29 18:33N 37°14' E 002°33'1716.8
2016-Aug-29 17:34N 37°10' E 002°13'1716.6
2016-Aug-29 16:33N 37°07' E 001°52'1716.9
2016-Aug-29 15:33N 37°03' E 001°31'1717.0
2016-Aug-29 14:32N 36°59' E 001°11'1717.1
2016-Aug-29 13:31N 36°54' E 000°49'1817.1
2016-Aug-29 12:29N 36°51' E 000°28'1616.7
2016-Aug-29 11:33N 36°47' E 000°09'1916.9
2016-Aug-29 10:26N 36°43' W 000°14'1716.7
2016-Aug-29 09:26N 36°39' W 000°34'1516.8
2016-Aug-29 08:34N 36°36' W 000°52'1716.9
2016-Aug-29 07:33N 36°32' W 001°13'1716.7
2016-Aug-29 06:34N 36°28' W 001°33'1717.0
2016-Aug-29 05:34N 36°24' W 001°53'1716.7
2016-Aug-29 04:34N 36°20' W 002°14'1616.5
2016-Aug-29 03:34N 36°19' W 002°34'1716.8
2016-Aug-29 02:34N 36°16' W 002°55'2016.7
2016-Aug-29 01:21N 36°14' W 003°19'1316.2
2016-Aug-29 00:33N 36°11' W 003°35'8216.4
2016-Aug-28 19:34N 36°00' W 005°16'13 2.1
2016-Aug-28 13:32N 35°55' W 005°30'4 0.4
2016-Aug-28 02:29N 35°53' W 005°34'2 0.2
2016-Aug-27 16:18N 35°54' W 005°37'7 8.7
2016-Aug-27 15:32N 35°53' W 005°45'28 4.6
2016-Aug-27 09:29N 35°53' W 006°19'3810.8
2016-Aug-27 06:00N 35°54' W 007°06'21212.8 100 / 171016.0 5.4 1.024.019.4
2016-Aug-26 13:26N 36°11' W 011°27'1212.4
2016-Aug-26 12:27N 36°13' W 011°41'511.8
2016-Aug-26 12:00N 36°12' W 011°48'714.8 020 / 231016.0 5.4 1.522.017.2
2016-Aug-26 11:32N 36°15' W 011°55'1612.1
2016-Aug-26 10:13N 36°18' W 012°15'812.2
2016-Aug-26 09:33N 36°20' W 012°24'3810.8
2016-Aug-26 06:00N 36°24' W 013°12'14612.2 010 / 231017.010.8 2.022.516.8
2016-Aug-25 18:00N 36°48' W 016°12'15012.5 010 / 201019.010.8 2.022.515.0
2016-Aug-25 06:00N 37°12' W 019°18'7712.8 020 / 191020.010.8 20.615.8
2016-Aug-25 00:00N 37°18' W 020°54'13813.1 360 / 191022.010.8 2.021.016.0
2016-Aug-24 13:29N 37°33' W 023°46'1112.4
2016-Aug-24 12:33N 37°34' W 024°01'1312.7
2016-Aug-24 11:33N 37°35' W 024°17'1312.7
2016-Aug-24 10:33N 37°36' W 024°33'1312.8
2016-Aug-24 09:33N 37°37' W 024°49'1312.9
2016-Aug-24 08:34N 37°38' W 025°05'1313.0
2016-Aug-24 07:33N 37°38' W 025°22'1313.4
2016-Aug-24 06:33N 37°37' W 025°38'813.6
2016-Aug-24 06:00N 37°36' W 025°48'1912.9 020 / 71023.010.8 21.516.6
2016-Aug-24 04:34N 37°37' W 026°11'1313.3
2016-Aug-24 03:33N 37°37' W 026°28'1313.3
2016-Aug-24 02:34N 37°37' W 026°45'1313.2
2016-Aug-24 01:33N 37°36' W 027°02'1313.1
2016-Aug-24 00:33N 37°36' W 027°18'5 8.1
2016-Aug-24 00:00N 37°36' W 027°24'819.3 050 / 101026.010.8 1.021.014.2
2016-Aug-23 23:33N 37°36' W 027°35'1313.1
2016-Aug-23 22:33N 37°36' W 027°51'1313.3
2016-Aug-23 21:34N 37°35' W 028°08'1313.3
2016-Aug-23 20:33N 37°35' W 028°25'1313.3
2016-Aug-23 19:33N 37°35' W 028°42'1313.4
2016-Aug-23 18:33N 37°35' W 028°58'813.7
2016-Aug-23 18:00N 37°30' W 029°06'819.1 030 / 111026.010.8 1.022.515.026.0
2016-Aug-23 17:33N 37°35' W 029°15'1313.0
2016-Aug-23 16:33N 37°34' W 029°31'1313.4
2016-Aug-23 15:33N 37°34' W 029°48'12913.5
2016-Aug-23 06:00N 37°24' W 032°30'8113.6 040 / 81026.010.8 1.022.015.326.0
2016-Aug-23 00:00N 37°18' W 034°12'25113.9 040 / 131027.010.8 1.024.021.0
2016-Aug-22 06:00N 36°48' W 039°24'41013.7 090 / 101024.010.8 1.525.022.027.0
2016-Aug-21 00:00N 35°30' W 047°42'24813.8 160 / 91019.010.8 1.028.025.2
2016-Aug-20 06:00N 34°30' W 052°36'   260 / 111016.010.8 2.025.023.529.0

Dump ship's entire track history